N365AD -KVNY

Flight info

Callsign N365AD
Flight time N/A
Altitude VFR
Route
Aircraft C172/L-VGD/C

Departure

Time N/A
Airport -

Arrival

Time 2026-05-04 00:29
Airport Van Nuys Airport (KVNY)
Time Latitude Longitude Altitude Speed Heading
2026-05-04 00:28 34.21046 -118.49198 787 ft 0 kts 33°
2026-05-04 00:29 34.21105 -118.49182 788 ft 18 kts 11°
2026-05-04 00:29 34.21273 -118.49146 792 ft 24 kts 352°
2026-05-04 00:29 34.21433 -118.49205 791 ft 24 kts 354°
2026-05-04 00:30 34.21517 -118.49182 793 ft 0 kts 76°
2026-05-04 00:30 34.21518 -118.49163 793 ft 14 kts 88°
2026-05-04 00:30 34.21342 -118.49064 791 ft 57 kts 171°
2026-05-04 00:30 34.20844 -118.49046 958 ft 76 kts 167°
2026-05-04 00:31 34.20358 -118.48918 1300 ft 68 kts 160°
2026-05-04 00:31 34.19903 -118.48792 1598 ft 71 kts 165°
2026-05-04 00:31 34.19465 -118.48928 1855 ft 71 kts 238°
2026-05-04 00:31 34.19580 -118.49482 2050 ft 90 kts 314°
2026-05-04 00:32 34.20124 -118.50038 2009 ft 109 kts 314°
2026-05-04 00:32 34.20567 -118.50632 2370 ft 88 kts 309°
2026-05-04 00:32 34.21216 -118.50772 2379 ft 124 kts 21°
2026-05-04 00:32 34.21995 -118.50150 2147 ft 128 kts 39°
2026-05-04 00:33 34.22184 -118.49302 1727 ft 107 kts 127°
2026-05-04 00:33 34.20771 -118.49021 784 ft 83 kts 169°
2026-05-04 00:33 34.20235 -118.48966 1016 ft 80 kts 173°
2026-05-04 00:34 34.19691 -118.48970 1316 ft 73 kts 176°
2026-05-04 00:34 34.19222 -118.48990 1726 ft 55 kts 184°
2026-05-04 00:34 34.18870 -118.49050 1945 ft 67 kts 230°
2026-05-04 00:34 34.19050 -118.49695 1831 ft 113 kts 324°
2026-05-04 00:35 34.19908 -118.49684 1703 ft 132 kts 359°
2026-05-04 00:35 34.20632 -118.49950 2129 ft 103 kts 332°
2026-05-04 00:35 34.21356 -118.50210 2028 ft 127 kts 341°
2026-05-04 00:35 34.22265 -118.50429 1722 ft 130 kts 352°
2026-05-04 00:36 34.22997 -118.50207 1524 ft 100 kts 60°
2026-05-04 00:36 34.22858 -118.49546 1198 ft 87 kts 156°
2026-05-04 00:36 34.22252 -118.49305 974 ft 103 kts 156°
2026-05-04 00:36 34.21562 -118.49111 828 ft 89 kts 163°
2026-05-04 00:37 34.21039 -118.49021 790 ft 63 kts 164°
2026-05-04 00:37 34.20559 -118.49033 995 ft 73 kts 175°
2026-05-04 00:37 34.20002 -118.48989 1121 ft 88 kts 169°
2026-05-04 00:37 34.19426 -118.48839 1405 ft 82 kts 163°
2026-05-04 00:38 34.18895 -118.48603 1688 ft 79 kts 158°
2026-05-04 00:38 34.18378 -118.48568 1913 ft 83 kts 209°
2026-05-04 00:38 34.18000 -118.49096 2115 ft 89 kts 237°
2026-05-04 00:38 34.17691 -118.49677 2351 ft 91 kts 233°
2026-05-04 00:39 34.17278 -118.50276 2512 ft 94 kts 223°
2026-05-04 00:39 34.16807 -118.50788 2777 ft 86 kts 231°
2026-05-04 00:39 34.16840 -118.51534 2994 ft 102 kts 301°
2026-05-04 00:39 34.17186 -118.52024 2562 ft 136 kts 310°
2026-05-04 00:40 34.17817 -118.52706 2310 ft 108 kts 315°
2026-05-04 00:40 34.18341 -118.53245 2093 ft 98 kts 310°
2026-05-04 00:40 34.18946 -118.53912 1942 ft 77 kts 307°
2026-05-04 00:40 34.19207 -118.54231 1939 ft 88 kts 302°
2026-05-04 00:41 34.19525 -118.54934 2029 ft 100 kts 284°
2026-05-04 00:41 34.19820 -118.56080 1865 ft 114 kts 283°
2026-05-04 00:41 34.19977 -118.56686 1754 ft 112 kts 283°
2026-05-04 00:41 34.20186 -118.57506 1863 ft 93 kts 277°
2026-05-04 00:42 34.20359 -118.58234 1963 ft 91 kts 279°
2026-05-04 00:42 34.20486 -118.59016 2045 ft 97 kts 271°
2026-05-04 00:42 34.20516 -118.59882 1955 ft 107 kts 264°
2026-05-04 00:42 34.20501 -118.60712 2127 ft 87 kts 262°
2026-05-04 00:43 34.20434 -118.61470 2243 ft 93 kts 274°
2026-05-04 00:43 34.20942 -118.62119 2060 ft 120 kts 336°
2026-05-04 00:43 34.21825 -118.62201 2016 ft 126 kts 356°
2026-05-04 00:43 34.22671 -118.62196 2141 ft 118 kts 355°
2026-05-04 00:44 34.23517 -118.62206 2095 ft 124 kts 359°
2026-05-04 00:44 34.24292 -118.61822 2134 ft 124 kts 42°
2026-05-04 00:44 34.24631 -118.60858 2015 ft 125 kts 94°
2026-05-04 00:44 34.24410 -118.59899 1981 ft 112 kts 125°
2026-05-04 00:45 34.23990 -118.59177 1991 ft 107 kts 133°
2026-05-04 00:45 34.23575 -118.58485 1993 ft 95 kts 133°
2026-05-04 00:45 34.23147 -118.57825 2001 ft 108 kts 135°
2026-05-04 00:45 34.22634 -118.57106 1968 ft 120 kts 137°
2026-05-04 00:46 34.22082 -118.56346 1984 ft 119 kts 134°
2026-05-04 00:46 34.21663 -118.55686 1982 ft 90 kts 133°
2026-05-04 00:46 34.21315 -118.55133 1957 ft 86 kts 132°